Página principal
METAR-TAF:

METAR-TAF

Aeroportos :

Tashkent, Uzbequistão

Aeroporto Internacional de Tashkent

latitude: 41-16N, longitude: 069-16E, altura: 489 m

Observação actual do tempo

O boletim foi feito há 41 minutos, às 07:30 UTC
Vento 6 kt de sul
Temperatura 31°C
Humidade 27%
Pressão 1013 hPa
Visibilidade 10 km ou mais
sem nuvens abaixo de 1500 metros e sem cumulonimbus

METAR: UTTT 210730Z 19006KT CAVOK 31/10 Q1013 R08R/CLRD70 NOSIG

Hora: 13:11 (08:11 UTC)

Previsão

O boletim foi feito há 3 horas e 11 minutos, às 05:00 UTC
Previsão válida de 21 às 06 UTC a 22 às 06 UTC
Vento 10 kt de su-sudoeste
Visibilidade: 7000 m
Temporariamente
de 21 às 06 UTC a 21 às 16 UTC
Vento 12 kt de nor-noroeste com rajadas de 22 kt
Poucas nuvensa uma altura de 6000 ft, Cumulonimbus.

TAF: UTTT 210500Z 2106/2206 20010KT 7000 NSC TEMPO 2106/2116 34012G22KT FEW060CB

Observações e previsões do tempo de mais de 4000 aeroportos (mensagens METAR e TAF).

As estações disponíveis são os pontos amarelos e vermelhos sobre o mapa.

Mova o rato sobre o mapa para ver o nome da estação.

Depois clique no ponto para visualizar as observações e previsões meteorológicas.

Para alterar o mapa : clique nos botões verdes com uma cruz preta para aumentar o zoom; no botão verde com uma pitada de zoom; ou nas setas verdes para mapas adjacentes.


METAR-TAF: